Time;durP1;ratioP1;P1;durP2;ratioP2;P2;SDS_P1;SDS_P2;PMS_P1;PMS_P2;Temp;Humidity;BMP_temperature;BMP_pressure;BME280_temperature;BME280_humidity;BME280_pressure;Samples;Min_cycle;Max_cycle;Signal;HPM_P1;HPM_P2
2021/12/06 00:02:27;;;;;;;66.90;26.10;;;4.90;99.90;;;;;;5099466;28;20224;-80
2021/12/06 00:04:54;;;;;;;63.80;24.33;;;4.90;99.90;;;;;;5115450;28;20277;-79
2021/12/06 00:07:23;;;;;;;61.93;25.37;;;5.00;99.90;;;;;;5119475;28;20229;-79
2021/12/06 00:09:50;;;;;;;64.00;24.63;;;5.00;99.90;;;;;;5103963;28;20294;-79
2021/12/06 00:12:19;;;;;;;67.23;27.13;;;5.00;99.90;;;;;;5084715;28;20206;-79
2021/12/06 00:14:45;;;;;;;71.53;27.13;;;5.00;99.90;;;;;;5099197;28;20656;-78
2021/12/06 00:17:15;;;;;;;68.80;26.50;;;5.00;99.90;;;;;;5114281;28;20229;-79
2021/12/06 00:19:43;;;;;;;75.20;27.47;;;5.10;99.90;;;;;;5107554;28;20211;-79
2021/12/06 00:22:14;;;;;;;72.10;28.20;;;5.10;99.90;;;;;;5094381;28;20211;-79
2021/12/06 00:24:40;;;;;;;67.20;27.40;;;5.10;99.90;;;;;;5092409;28;20260;-79
2021/12/06 00:27:08;;;;;;;75.27;29.40;;;5.10;99.90;;;;;;5074596;28;20237;-79
2021/12/06 00:29:35;;;;;;;69.77;27.43;;;5.10;99.90;;;;;;5091440;28;20750;-78
2021/12/06 00:32:06;;;;;;;80.37;29.37;;;5.10;99.90;;;;;;5090465;28;20234;-79
2021/12/06 00:34:35;;;;;;;75.10;29.03;;;5.10;99.90;;;;;;5111457;28;20300;-79
2021/12/06 00:37:17;;;;;;;75.83;28.70;;;5.10;99.90;;;;;;5084492;28;20307;-80
2021/12/06 00:39:53;;;;;;;87.50;29.43;;;5.10;99.90;;;;;;5088597;28;20245;-78
2021/12/06 00:42:24;;;;;;;78.17;26.87;;;5.10;99.90;;;;;;5076750;28;20248;-79
2021/12/06 00:44:52;;;;;;;82.17;29.17;;;5.20;99.90;;;;;;5097561;28;20218;-80
2021/12/06 00:47:20;;;;;;;88.67;28.77;;;5.20;99.90;;;;;;5110050;28;20786;-79
2021/12/06 00:49:47;;;;;;;85.77;28.97;;;5.20;99.90;;;;;;5102553;28;20651;-80
2021/12/06 00:52:14;;;;;;;93.50;30.83;;;5.20;99.90;;;;;;5084155;28;20277;-79
2021/12/06 00:54:42;;;;;;;88.67;30.37;;;5.20;99.90;;;;;;5079961;28;20197;-79
2021/12/06 00:57:11;;;;;;;79.83;28.20;;;5.20;99.90;;;;;;5069883;28;20696;-79
2021/12/06 00:59:39;;;;;;;87.37;29.63;;;5.20;99.90;;;;;;5069750;28;20284;-79
2021/12/06 01:02:07;;;;;;;93.77;29.57;;;5.30;99.90;;;;;;5094154;28;20260;-78
2021/12/06 01:04:37;;;;;;;85.73;29.43;;;5.20;99.90;;;;;;5084743;28;20205;-79
2021/12/06 01:07:05;;;;;;;87.17;29.30;;;5.30;99.90;;;;;;5105840;28;20263;-78
2021/12/06 01:09:32;;;;;;;88.93;29.00;;;5.30;99.90;;;;;;5082603;28;20202;-78
2021/12/06 01:11:59;;;;;;;84.37;30.23;;;5.30;99.90;;;;;;5092594;28;20235;-79
2021/12/06 01:14:26;;;;;;;89.60;29.27;;;5.20;99.90;;;;;;5090890;28;20281;-79
2021/12/06 01:16:53;;;;;;;83.63;28.50;;;5.30;99.90;;;;;;5089734;28;20265;-80
2021/12/06 01:19:20;;;;;;;79.40;27.90;;;5.30;99.90;;;;;;5090680;28;20227;-78
2021/12/06 01:22:04;;;;;;;90.47;31.07;;;5.30;99.90;;;;;;5109170;28;20652;-78
2021/12/06 01:24:39;;;;;;;83.77;28.10;;;5.30;99.90;;;;;;5110456;28;20215;-78
2021/12/06 01:27:36;;;;;;;88.73;28.63;;;5.30;99.90;;;;;;5111255;28;20575;-79
2021/12/06 01:30:27;;;;;;;87.40;29.00;;;5.30;99.90;;;;;;5104151;28;20217;-78
2021/12/06 01:40:58;;;;;;;91.57;28.47;;;5.30;99.90;;;;;;5109638;28;20260;-77
2021/12/06 01:43:25;;;;;;;85.97;28.77;;;5.30;99.90;;;;;;5110324;28;20302;-79
2021/12/06 01:45:52;;;;;;;87.63;27.97;;;5.30;99.90;;;;;;5108608;28;20700;-79
2021/12/06 01:48:19;;;;;;;78.17;28.87;;;5.30;99.90;;;;;;5089598;28;20238;-79
2021/12/06 01:50:46;;;;;;;97.33;28.83;;;5.40;99.90;;;;;;5089100;28;20243;-79
2021/12/06 01:53:13;;;;;;;94.93;29.40;;;5.40;99.90;;;;;;5083064;28;20254;-79
2021/12/06 01:55:41;;;;;;;85.90;28.80;;;5.40;99.90;;;;;;5109192;28;20302;-79
2021/12/06 01:58:08;;;;;;;87.57;28.53;;;5.40;99.90;;;;;;5105919;28;20299;-80
2021/12/06 02:00:45;;;;;;;90.17;28.63;;;5.40;99.90;;;;;;5096218;28;20311;-80
2021/12/06 02:03:13;;;;;;;87.87;29.73;;;5.40;99.90;;;;;;5089686;28;20220;-78
2021/12/06 02:05:42;;;;;;;83.83;28.07;;;5.40;99.90;;;;;;5095821;28;20208;-78
2021/12/06 02:08:09;;;;;;;83.17;28.47;;;5.40;99.90;;;;;;5074080;28;20206;-79
2021/12/06 02:10:38;;;;;;;93.70;29.10;;;5.40;99.90;;;;;;5091237;28;20289;-79
2021/12/06 02:13:06;;;;;;;90.47;28.77;;;5.40;99.90;;;;;;5077807;28;20257;-79
2021/12/06 02:15:42;;;;;;;86.90;28.30;;;5.40;99.90;;;;;;5102837;28;20298;-78
2021/12/06 02:18:26;;;;;;;78.03;26.60;;;5.40;99.90;;;;;;5085540;28;20320;-78
2021/12/06 02:21:02;;;;;;;80.57;27.00;;;5.40;99.90;;;;;;5092566;28;20209;-79
2021/12/06 02:23:31;;;;;;;67.73;26.40;;;5.40;99.90;;;;;;5087906;28;20207;-80
2021/12/06 02:25:59;;;;;;;71.47;26.47;;;5.40;99.90;;;;;;5089609;28;20266;-80
2021/12/06 02:28:26;;;;;;;80.90;27.40;;;5.40;99.90;;;;;;5089215;28;20217;-79
2021/12/06 02:30:53;;;;;;;81.30;26.63;;;5.40;99.90;;;;;;5051821;28;20211;-79
2021/12/06 02:33:21;;;;;;;70.37;24.90;;;5.40;99.90;;;;;;5084215;28;20214;-79
2021/12/06 02:35:48;;;;;;;78.60;27.17;;;5.40;99.90;;;;;;5108898;28;20301;-79
2021/12/06 02:38:15;;;;;;;74.47;27.10;;;5.40;99.90;;;;;;5106635;28;20311;-79
2021/12/06 02:40:42;;;;;;;86.70;26.93;;;5.40;99.90;;;;;;5109200;28;20313;-80
2021/12/06 02:43:11;;;;;;;75.37;27.70;;;5.40;99.90;;;;;;5109397;28;20214;-78
2021/12/06 02:45:39;;;;;;;77.20;27.33;;;5.40;99.90;;;;;;5090117;28;20211;-79
2021/12/06 02:48:08;;;;;;;86.13;28.40;;;5.30;99.90;;;;;;5071284;28;20382;-79
2021/12/06 02:50:45;;;;;;;74.77;27.27;;;5.40;99.90;;;;;;5051712;28;20237;-79
2021/12/06 02:53:13;;;;;;;75.47;26.97;;;5.30;99.90;;;;;;5048340;28;20300;-78
2021/12/06 02:55:42;;;;;;;79.57;28.30;;;5.30;99.90;;;;;;5030628;28;20278;-79
2021/12/06 02:58:21;;;;;;;87.20;28.93;;;5.30;99.90;;;;;;5048501;28;20212;-79
2021/12/06 03:00:53;;;;;;;83.73;27.90;;;5.30;99.90;;;;;;5031916;28;20284;-80
2021/12/06 03:03:21;;;;;;;81.10;27.37;;;5.30;99.90;;;;;;5052228;28;20335;-80
2021/12/06 03:05:52;;;;;;;79.80;26.53;;;5.30;99.90;;;;;;5065578;28;20378;-78
2021/12/06 03:08:35;;;;;;;84.23;27.50;;;5.30;99.90;;;;;;5071922;28;20222;-79
2021/12/06 03:11:05;;;;;;;74.67;27.30;;;5.30;99.90;;;;;;5051672;28;20208;-80
2021/12/06 03:13:32;;;;;;;81.27;27.30;;;5.30;99.90;;;;;;5052394;28;20232;-80
2021/12/06 03:15:59;;;;;;;77.67;26.20;;;5.30;99.90;;;;;;5068527;28;20814;-80
2021/12/06 03:18:26;;;;;;;82.30;28.93;;;5.30;99.90;;;;;;5064681;28;20309;-79
2021/12/06 03:20:53;;;;;;;77.87;26.90;;;5.30;99.90;;;;;;5055190;28;20215;-79
2021/12/06 03:23:20;;;;;;;71.70;27.17;;;5.30;99.90;;;;;;5062415;28;20672;-78
2021/12/06 03:25:47;;;;;;;82.27;27.60;;;5.30;99.90;;;;;;5072815;28;20223;-79
2021/12/06 03:28:14;;;;;;;75.03;26.80;;;5.30;99.90;;;;;;5072526;28;20300;-79
2021/12/06 03:30:40;;;;;;;91.80;29.13;;;5.20;99.90;;;;;;5061485;28;20660;-79
2021/12/06 03:33:08;;;;;;;82.50;27.53;;;5.20;99.90;;;;;;5047575;28;20234;-78
2021/12/06 03:35:34;;;;;;;82.27;28.13;;;5.20;99.90;;;;;;5056437;28;20241;-77
2021/12/06 03:38:01;;;;;;;74.00;27.23;;;5.20;99.90;;;;;;5072593;28;20206;-78
2021/12/06 03:40:28;;;;;;;82.43;27.87;;;5.20;99.90;;;;;;5074480;28;20273;-78
2021/12/06 03:42:55;;;;;;;86.33;28.87;;;5.20;99.90;;;;;;5075918;28;20266;-79
2021/12/06 03:45:22;;;;;;;80.70;27.50;;;5.20;99.90;;;;;;5056719;28;20280;-79
2021/12/06 03:47:49;;;;;;;86.87;28.17;;;5.20;99.90;;;;;;5059819;28;20233;-79
2021/12/06 03:50:17;;;;;;;78.03;26.97;;;5.20;99.90;;;;;;5065110;28;20674;-79
2021/12/06 03:52:44;;;;;;;69.87;25.70;;;5.10;99.90;;;;;;5058738;28;20326;-78
2021/12/06 03:55:13;;;;;;;82.20;28.53;;;5.10;99.90;;;;;;5078060;28;20601;-79
2021/12/06 03:57:41;;;;;;;81.67;26.80;;;5.10;99.90;;;;;;5071685;28;20212;-78
2021/12/06 04:00:08;;;;;;;79.90;28.27;;;5.20;99.90;;;;;;5073237;28;20208;-79
2021/12/06 04:02:37;;;;;;;84.40;26.87;;;5.20;99.90;;;;;;5072913;28;20680;-79
2021/12/06 04:05:07;;;;;;;77.07;26.97;;;5.10;99.90;;;;;;5082775;28;20573;-78
2021/12/06 04:07:33;;;;;;;79.53;26.47;;;5.20;99.90;;;;;;5087301;28;20247;-79
2021/12/06 04:10:01;;;;;;;80.73;27.40;;;5.20;99.90;;;;;;5083050;28;20256;-78
2021/12/06 04:12:28;;;;;;;79.43;27.23;;;5.10;99.90;;;;;;5071914;28;20236;-79
2021/12/06 04:14:55;;;;;;;73.63;26.77;;;5.10;99.90;;;;;;5078067;28;20200;-79
2021/12/06 04:17:23;;;;;;;78.63;27.50;;;5.10;99.90;;;;;;5059981;28;20250;-78
2021/12/06 04:19:50;;;;;;;66.53;25.30;;;5.10;99.90;;;;;;5085428;28;20239;-79
2021/12/06 04:22:18;;;;;;;78.23;26.87;;;5.10;99.90;;;;;;5071483;28;20574;-78
2021/12/06 04:24:46;;;;;;;77.83;26.47;;;5.10;99.90;;;;;;5090485;28;20217;-78
2021/12/06 04:27:14;;;;;;;79.60;26.93;;;5.10;99.90;;;;;;5073138;28;20231;-79
2021/12/06 04:29:47;;;;;;;74.87;25.57;;;5.10;99.90;;;;;;5089273;28;20293;-79
2021/12/06 04:32:15;;;;;;;79.10;27.30;;;5.10;99.90;;;;;;5071056;28;20245;-79
2021/12/06 04:34:43;;;;;;;76.47;26.40;;;5.10;99.90;;;;;;5066012;28;20232;-78
2021/12/06 04:37:11;;;;;;;77.20;25.93;;;5.10;99.90;;;;;;5090869;28;20206;-79
2021/12/06 04:39:39;;;;;;;73.93;26.80;;;5.10;99.90;;;;;;5090074;28;20207;-79
2021/12/06 04:42:06;;;;;;;77.27;24.80;;;5.10;99.90;;;;;;5090537;28;20192;-78
2021/12/06 04:44:33;;;;;;;82.53;26.33;;;5.10;99.90;;;;;;5072764;28;20239;-79
2021/12/06 04:47:01;;;;;;;89.27;26.50;;;5.10;99.90;;;;;;5089869;28;20322;-79
2021/12/06 04:49:29;;;;;;;86.40;27.77;;;5.10;99.90;;;;;;5090579;28;20335;-78
2021/12/06 04:52:00;;;;;;;84.90;26.53;;;5.10;99.90;;;;;;5090528;28;20248;-79
2021/12/06 04:54:31;;;;;;;81.30;25.97;;;5.10;99.90;;;;;;5066162;28;20205;-79
2021/12/06 04:57:13;;;;;;;90.00;27.87;;;5.00;99.90;;;;;;5070390;28;20665;-78
2021/12/06 04:59:45;;;;;;;82.70;29.03;;;5.00;99.90;;;;;;5071027;28;20291;-79
2021/12/06 05:02:19;;;;;;;82.73;26.30;;;5.00;99.90;;;;;;5070569;28;20255;-78
2021/12/06 05:04:51;;;;;;;97.90;28.60;;;5.00;99.90;;;;;;5052680;28;20256;-78
2021/12/06 05:07:31;;;;;;;88.37;27.33;;;5.00;99.90;;;;;;5072839;28;20312;-79
2021/12/06 05:09:58;;;;;;;97.37;27.67;;;5.00;99.90;;;;;;5089876;28;20241;-80
2021/12/06 05:12:27;;;;;;;96.70;27.23;;;5.00;99.90;;;;;;5074240;28;20205;-79
2021/12/06 05:14:54;;;;;;;76.73;25.20;;;5.00;99.90;;;;;;5070757;28;20782;-78
2021/12/06 05:17:22;;;;;;;93.53;28.37;;;5.00;99.90;;;;;;5083219;28;20309;-79
2021/12/06 05:19:50;;;;;;;75.63;24.90;;;4.90;99.90;;;;;;5077380;28;20215;-78
2021/12/06 05:22:17;;;;;;;91.40;27.47;;;4.90;99.90;;;;;;5083717;28;20227;-78
2021/12/06 05:24:44;;;;;;;98.70;29.43;;;4.80;99.90;;;;;;5109055;28;20215;-77
2021/12/06 05:27:11;;;;;;;94.27;28.63;;;4.80;99.90;;;;;;5090347;28;20225;-78
2021/12/06 05:29:38;;;;;;;84.10;27.17;;;4.70;99.90;;;;;;5091270;28;20231;-78
2021/12/06 05:32:05;;;;;;;97.37;27.73;;;4.70;99.90;;;;;;5092931;28;20242;-78
2021/12/06 05:34:39;;;;;;;87.27;28.73;;;4.70;99.90;;;;;;5090041;28;20205;-79
2021/12/06 05:37:10;;;;;;;91.07;28.37;;;4.60;99.90;;;;;;5099859;28;20196;-78
2021/12/06 05:39:36;;;;;;;102.67;29.33;;;4.50;99.90;;;;;;5077816;28;20289;-78
2021/12/06 05:42:09;;;;;;;90.60;28.53;;;4.50;99.90;;;;;;5070257;28;20290;-78
2021/12/06 05:44:36;;;;;;;94.50;29.37;;;4.40;99.90;;;;;;5051970;28;20312;-78
2021/12/06 05:47:07;;;;;;;84.70;28.13;;;4.40;99.90;;;;;;5069453;28;20242;-78
2021/12/06 05:49:34;;;;;;;93.87;27.63;;;4.40;99.90;;;;;;5088994;28;20242;-79
2021/12/06 05:52:02;;;;;;;92.93;27.73;;;4.30;99.90;;;;;;5087654;28;20233;-78
2021/12/06 05:54:32;;;;;;;87.37;26.63;;;4.30;99.90;;;;;;5073365;28;20653;-79
2021/12/06 05:57:00;;;;;;;80.87;26.80;;;4.30;99.90;;;;;;5069823;28;20207;-79
2021/12/06 05:59:30;;;;;;;88.57;28.37;;;4.20;99.90;;;;;;5071145;28;20289;-79
2021/12/06 06:01:57;;;;;;;98.93;28.13;;;4.20;99.90;;;;;;5085919;28;20229;-79
2021/12/06 06:04:26;;;;;;;89.13;27.97;;;4.10;99.90;;;;;;5057642;28;20212;-81
2021/12/06 06:06:53;;;;;;;89.33;26.00;;;4.10;99.90;;;;;;5070851;28;20235;-79
2021/12/06 06:09:20;;;;;;;89.33;27.67;;;4.10;99.90;;;;;;5059734;28;20307;-78
2021/12/06 06:11:47;;;;;;;106.07;30.10;;;4.00;99.90;;;;;;5069026;28;20199;-79
2021/12/06 06:14:15;;;;;;;114.77;31.23;;;4.00;99.90;;;;;;5051158;28;20238;-79
2021/12/06 06:16:51;;;;;;;116.57;30.47;;;4.00;99.90;;;;;;5068894;28;20235;-78
2021/12/06 06:19:22;;;;;;;118.90;30.90;;;4.00;99.90;;;;;;5077127;28;20271;-80
2021/12/06 06:21:50;;;;;;;105.07;29.27;;;4.00;99.90;;;;;;5080071;28;20213;-79
2021/12/06 06:24:17;;;;;;;120.97;31.03;;;4.00;99.90;;;;;;5050739;28;20203;-77
2021/12/06 06:26:44;;;;;;;109.10;30.30;;;4.00;99.90;;;;;;5050269;28;20264;-80
2021/12/06 06:29:12;;;;;;;112.00;30.37;;;4.00;99.90;;;;;;5069108;28;20551;-79
2021/12/06 06:31:39;;;;;;;126.90;32.77;;;4.00;99.90;;;;;;5067922;28;20207;-80
2021/12/06 06:34:07;;;;;;;110.73;29.60;;;3.90;99.90;;;;;;5082359;28;20230;-79
2021/12/06 06:36:34;;;;;;;114.87;32.03;;;3.90;99.90;;;;;;5092954;28;20241;-80
2021/12/06 06:39:04;;;;;;;136.67;34.27;;;3.90;99.90;;;;;;5092775;28;20789;-78
2021/12/06 06:41:31;;;;;;;119.93;31.93;;;3.90;99.90;;;;;;5059275;28;20200;-79
2021/12/06 06:43:58;;;;;;;119.57;30.87;;;4.00;99.90;;;;;;5071968;28;20218;-78
2021/12/06 06:46:25;;;;;;;123.97;32.80;;;4.00;99.90;;;;;;5075381;28;20267;-80
2021/12/06 06:48:53;;;;;;;120.73;33.00;;;4.00;99.90;;;;;;5078467;28;20226;-79
2021/12/06 06:51:20;;;;;;;121.00;32.30;;;4.00;99.90;;;;;;5084435;28;20203;-80
2021/12/06 06:53:47;;;;;;;123.20;32.47;;;3.90;99.90;;;;;;5088241;28;20197;-79
2021/12/06 06:56:14;;;;;;;116.27;32.63;;;3.90;99.90;;;;;;5090010;28;20211;-80
2021/12/06 06:58:41;;;;;;;116.30;32.63;;;3.90;99.90;;;;;;5091140;28;20257;-79
2021/12/06 07:01:08;;;;;;;124.63;31.77;;;3.90;99.90;;;;;;5092550;28;20213;-80
2021/12/06 07:03:35;;;;;;;120.47;32.03;;;3.90;99.90;;;;;;5077766;28;20227;-81
2021/12/06 07:06:04;;;;;;;123.60;33.10;;;3.90;99.90;;;;;;5076406;28;20212;-79
2021/12/06 07:08:32;;;;;;;125.03;32.67;;;3.90;99.90;;;;;;5078109;28;20689;-80
2021/12/06 07:11:00;;;;;;;116.90;31.90;;;3.90;99.90;;;;;;5093747;28;20312;-78
2021/12/06 07:13:27;;;;;;;116.53;30.20;;;3.90;99.90;;;;;;5093845;28;20298;-79
2021/12/06 07:15:55;;;;;;;120.17;30.67;;;3.90;99.90;;;;;;5094148;28;20199;-81
2021/12/06 07:18:22;;;;;;;117.73;31.20;;;3.90;99.90;;;;;;5074603;28;20226;-80
2021/12/06 07:20:49;;;;;;;121.33;32.23;;;3.90;99.90;;;;;;5091081;28;20254;-80
2021/12/06 07:23:16;;;;;;;132.20;31.80;;;3.80;99.90;;;;;;5088230;28;20686;-79
2021/12/06 07:25:42;;;;;;;135.17;34.13;;;3.80;99.90;;;;;;5071995;28;20247;-79
2021/12/06 07:28:09;;;;;;;141.63;35.47;;;3.80;99.90;;;;;;5072615;28;20241;-80
2021/12/06 07:30:37;;;;;;;119.97;31.40;;;3.80;99.90;;;;;;5072587;28;20289;-79
2021/12/06 07:33:07;;;;;;;132.60;31.83;;;3.90;99.90;;;;;;5057163;28;20885;-79
2021/12/06 07:35:34;;;;;;;125.43;32.67;;;3.80;99.90;;;;;;5076493;28;20622;-80
2021/12/06 07:38:03;;;;;;;135.53;32.10;;;3.90;99.90;;;;;;5074180;28;20221;-79
2021/12/06 07:40:31;;;;;;;141.57;33.20;;;3.80;99.90;;;;;;5054668;28;20238;-79
2021/12/06 07:42:58;;;;;;;142.77;31.53;;;3.80;99.90;;;;;;5071691;28;20590;-78
2021/12/06 07:45:26;;;;;;;150.17;34.73;;;3.80;99.90;;;;;;5078797;28;20241;-79
2021/12/06 07:47:53;;;;;;;128.00;32.57;;;3.80;99.90;;;;;;5084728;28;20254;-79
2021/12/06 07:50:21;;;;;;;149.60;33.27;;;3.80;99.90;;;;;;5063356;28;20699;-79
2021/12/06 07:52:50;;;;;;;152.40;34.60;;;3.80;99.90;;;;;;5071862;28;20659;-78
2021/12/06 07:55:19;;;;;;;137.30;32.53;;;3.70;99.90;;;;;;5070813;28;20200;-78
2021/12/06 07:57:48;;;;;;;145.23;31.80;;;3.80;99.90;;;;;;5069980;28;20201;-79
2021/12/06 08:00:23;;;;;;;156.77;33.40;;;3.80;99.90;;;;;;5072137;28;20207;-77
2021/12/06 08:02:51;;;;;;;154.10;33.03;;;3.80;99.90;;;;;;5073028;28;20222;-76
2021/12/06 08:05:30;;;;;;;124.97;31.70;;;3.80;99.90;;;;;;5075166;28;20552;-77
2021/12/06 08:08:11;;;;;;;121.97;30.50;;;3.80;99.90;;;;;;5056703;28;20790;-78
2021/12/06 08:10:43;;;;;;;129.70;32.00;;;3.80;99.90;;;;;;5069120;28;20246;-76
2021/12/06 08:13:13;;;;;;;118.87;29.37;;;3.80;99.90;;;;;;5070230;28;20207;-80
2021/12/06 08:15:40;;;;;;;125.67;32.57;;;3.80;99.90;;;;;;5053670;28;20208;-77
2021/12/06 08:18:08;;;;;;;132.57;33.23;;;3.80;99.90;;;;;;5071453;28;20246;-80
2021/12/06 08:20:36;;;;;;;128.10;33.00;;;3.80;99.90;;;;;;5071742;28;20212;-78
2021/12/06 08:23:06;;;;;;;103.00;32.13;;;3.90;99.90;;;;;;5081127;28;20322;-78
2021/12/06 08:25:33;;;;;;;108.60;31.53;;;3.80;99.90;;;;;;5067027;28;20226;-80
2021/12/06 08:28:00;;;;;;;105.43;30.93;;;3.90;99.90;;;;;;5074991;28;20219;-80
2021/12/06 08:30:27;;;;;;;105.40;30.80;;;3.80;99.90;;;;;;5073456;28;20649;-79
2021/12/06 08:32:58;;;;;;;101.43;32.23;;;3.80;99.90;;;;;;5086036;28;20219;-79
2021/12/06 08:35:35;;;;;;;110.27;31.87;;;3.80;99.90;;;;;;5087846;28;20215;-78
2021/12/06 08:38:07;;;;;;;99.77;30.07;;;3.80;99.90;;;;;;5080113;28;20195;-78
2021/12/06 08:40:34;;;;;;;90.43;31.87;;;3.80;99.90;;;;;;5074691;28;20212;-78
2021/12/06 08:43:02;;;;;;;99.70;31.03;;;3.90;99.90;;;;;;5071765;28;20303;-79
2021/12/06 08:45:30;;;;;;;110.77;33.03;;;3.90;99.90;;;;;;5077213;28;20251;-78
2021/12/06 08:47:58;;;;;;;117.47;30.53;;;3.90;99.90;;;;;;5069584;28;20755;-78
2021/12/06 08:50:29;;;;;;;101.23;31.83;;;3.90;99.90;;;;;;5049638;28;20229;-78
2021/12/06 08:52:56;;;;;;;118.60;30.50;;;3.90;99.90;;;;;;5019964;28;20268;-80
2021/12/06 08:55:24;;;;;;;103.53;30.10;;;3.90;99.90;;;;;;5042104;28;20251;-79
2021/12/06 08:57:51;;;;;;;88.70;28.97;;;3.90;99.90;;;;;;5054302;28;20225;-78
2021/12/06 09:00:22;;;;;;;102.70;30.23;;;3.90;99.90;;;;;;5044423;28;20220;-79
2021/12/06 09:02:49;;;;;;;112.33;31.20;;;3.90;99.90;;;;;;5022140;28;20222;-77
2021/12/06 09:05:20;;;;;;;89.07;31.40;;;3.90;99.90;;;;;;5030869;28;20216;-78
2021/12/06 09:07:48;;;;;;;93.33;31.77;;;4.00;99.90;;;;;;5031366;28;20311;-79
2021/12/06 09:10:15;;;;;;;101.77;32.40;;;4.00;99.90;;;;;;5013405;28;20615;-79
2021/12/06 09:12:43;;;;;;;95.80;31.37;;;4.00;99.90;;;;;;5031566;28;20201;-80
2021/12/06 09:15:14;;;;;;;90.40;30.13;;;4.00;99.90;;;;;;5035596;28;20204;-81
2021/12/06 09:17:48;;;;;;;109.53;33.83;;;4.00;99.90;;;;;;5045622;28;20228;-80
2021/12/06 09:20:18;;;;;;;98.03;32.93;;;4.00;99.90;;;;;;5064153;28;20255;-80
2021/12/06 09:22:47;;;;;;;86.23;31.90;;;4.00;99.90;;;;;;5047235;28;20208;-82
2021/12/06 09:25:15;;;;;;;88.97;32.47;;;4.00;99.90;;;;;;5028835;28;20699;-81
2021/12/06 09:27:43;;;;;;;91.50;32.80;;;4.00;99.90;;;;;;5034620;28;20243;-80
2021/12/06 09:30:14;;;;;;;95.23;32.47;;;4.00;99.90;;;;;;5048683;28;20213;-80
2021/12/06 09:32:41;;;;;;;96.33;33.03;;;4.10;99.90;;;;;;5049567;28;20259;-79
2021/12/06 09:35:11;;;;;;;96.47;33.50;;;4.10;99.90;;;;;;5043435;28;20244;-78
2021/12/06 09:37:39;;;;;;;95.90;33.67;;;4.10;99.90;;;;;;5047024;28;20276;-79
2021/12/06 09:40:08;;;;;;;95.97;33.23;;;4.10;99.90;;;;;;5053368;28;20210;-80
2021/12/06 09:42:37;;;;;;;100.53;33.10;;;4.20;99.90;;;;;;5048704;28;20208;-79
2021/12/06 09:45:15;;;;;;;99.33;33.80;;;4.10;99.90;;;;;;5044724;28;20359;-80
2021/12/06 09:47:49;;;;;;;95.40;32.90;;;4.20;99.90;;;;;;5039871;28;20221;-79
2021/12/06 09:50:21;;;;;;;94.07;32.27;;;4.20;99.90;;;;;;5047297;28;20231;-79
2021/12/06 09:52:48;;;;;;;95.77;33.57;;;4.30;99.90;;;;;;5083436;28;20658;-78
2021/12/06 09:55:16;;;;;;;99.87;34.50;;;4.30;99.90;;;;;;5069644;28;20198;-79
2021/12/06 09:57:43;;;;;;;96.60;32.27;;;4.30;99.90;;;;;;5069787;28;20242;-78
2021/12/06 10:00:12;;;;;;;97.00;35.10;;;4.20;99.90;;;;;;5069682;28;20211;-78
2021/12/06 10:02:39;;;;;;;110.00;35.70;;;4.30;99.90;;;;;;5069779;28;20309;-78
2021/12/06 10:05:07;;;;;;;94.20;31.77;;;4.30;99.90;;;;;;5072398;28;20212;-81
2021/12/06 10:07:34;;;;;;;102.20;34.63;;;4.30;99.90;;;;;;5065282;28;20709;-79
2021/12/06 10:10:02;;;;;;;104.40;33.63;;;4.30;99.90;;;;;;5084182;28;20273;-80
2021/12/06 10:12:29;;;;;;;92.90;34.40;;;4.40;99.90;;;;;;5084148;28;20315;-80
2021/12/06 10:15:00;;;;;;;94.10;34.03;;;4.30;99.90;;;;;;5077541;28;20734;-80
2021/12/06 10:17:27;;;;;;;99.90;35.30;;;4.30;99.90;;;;;;5073261;28;20222;-78
2021/12/06 10:19:55;;;;;;;91.43;33.87;;;4.30;99.90;;;;;;5044175;28;20216;-78
2021/12/06 10:22:28;;;;;;;102.60;33.17;;;4.30;99.90;;;;;;5068676;28;20290;-77
2021/12/06 10:24:58;;;;;;;93.93;32.33;;;4.30;99.90;;;;;;5078695;28;20220;-79
2021/12/06 10:28:01;;;;;;;90.73;33.13;;;4.30;99.90;;;;;;5070595;28;20259;-79
2021/12/06 10:30:28;;;;;;;101.63;33.60;;;4.20;99.90;;;;;;5069271;28;20233;-79
2021/12/06 10:33:12;;;;;;;102.97;34.47;;;4.20;99.90;;;;;;5056832;28;20217;-77
2021/12/06 10:35:46;;;;;;;99.37;33.93;;;4.20;99.90;;;;;;5073740;28;20295;-79
2021/12/06 10:38:29;;;;;;;101.63;34.43;;;4.30;99.90;;;;;;5062419;28;20250;-77
2021/12/06 10:41:02;;;;;;;106.63;36.83;;;4.40;99.90;;;;;;5062498;28;20409;-77
2021/12/06 10:43:33;;;;;;;104.57;35.93;;;4.40;99.90;;;;;;5065872;28;20203;-78
2021/12/06 10:46:02;;;;;;;110.60;36.30;;;4.40;99.90;;;;;;5070798;28;20659;-76
2021/12/06 10:48:36;;;;;;;106.27;37.90;;;4.50;99.90;;;;;;5073357;28;20255;-80
2021/12/06 10:51:10;;;;;;;110.60;36.93;;;4.60;99.90;;;;;;5076685;28;20234;-79
2021/12/06 10:53:47;;;;;;;102.63;36.77;;;4.70;99.90;;;;;;5074153;28;20207;-80
2021/12/06 10:56:25;;;;;;;88.43;33.87;;;4.80;99.90;;;;;;5067634;28;20242;-79
2021/12/06 10:58:55;;;;;;;96.00;35.70;;;4.80;99.90;;;;;;5075640;28;20192;-79
2021/12/06 11:01:31;;;;;;;93.83;35.30;;;4.80;99.90;;;;;;5068154;28;20210;-79
2021/12/06 11:04:02;;;;;;;101.53;35.87;;;4.80;99.90;;;;;;5084235;28;20229;-81
2021/12/06 11:06:43;;;;;;;95.23;34.77;;;4.80;99.90;;;;;;5076800;28;20208;-79
2021/12/06 11:09:24;;;;;;;95.60;34.53;;;4.80;99.90;;;;;;5068857;28;20255;-78
2021/12/06 11:11:54;;;;;;;94.60;34.93;;;4.80;99.90;;;;;;5069876;28;20196;-80
2021/12/06 11:14:23;;;;;;;87.37;33.13;;;4.70;99.90;;;;;;5072634;28;20201;-79
2021/12/06 11:17:04;;;;;;;91.27;33.90;;;4.80;99.90;;;;;;5070637;28;20236;-79
2021/12/06 11:19:31;;;;;;;100.20;36.40;;;4.80;99.90;;;;;;5072210;28;20200;-81
2021/12/06 11:22:08;;;;;;;98.87;35.37;;;4.80;99.90;;;;;;5059167;28;20628;-79
2021/12/06 11:24:39;;;;;;;97.10;36.30;;;4.80;99.90;;;;;;5067962;28;20681;-83
2021/12/06 11:27:17;;;;;;;98.57;35.43;;;4.90;99.90;;;;;;5075638;28;20657;-77
2021/12/06 11:30:00;;;;;;;107.17;37.93;;;4.90;99.90;;;;;;5080723;28;20224;-80
2021/12/06 11:32:35;;;;;;;103.03;36.27;;;4.90;99.90;;;;;;5078119;28;20710;-79
2021/12/06 11:35:11;;;;;;;94.73;36.03;;;4.90;99.90;;;;;;5060073;28;20214;-81
2021/12/06 11:37:40;;;;;;;100.17;36.90;;;5.00;99.90;;;;;;5077594;28;20206;-78
2021/12/06 11:40:19;;;;;;;87.73;35.23;;;4.90;99.90;;;;;;5074762;28;20207;-79
2021/12/06 11:42:53;;;;;;;87.03;34.03;;;5.00;99.90;;;;;;5071569;28;20196;-80
2021/12/06 11:45:35;;;;;;;85.87;33.30;;;5.00;99.90;;;;;;5072512;28;20213;-78
2021/12/06 11:48:03;;;;;;;81.80;32.37;;;5.00;99.90;;;;;;5071160;28;20647;-80
2021/12/06 11:50:30;;;;;;;82.37;33.30;;;5.00;99.90;;;;;;5070806;28;20635;-79
2021/12/06 11:53:05;;;;;;;72.63;31.07;;;5.00;99.90;;;;;;5069099;28;20229;-79
2021/12/06 11:55:34;;;;;;;67.03;31.33;;;5.10;99.90;;;;;;5071726;28;20191;-79
2021/12/06 11:58:19;;;;;;;72.80;30.30;;;5.00;99.90;;;;;;5074186;28;20228;-78
2021/12/06 12:00:45;;;;;;;66.93;29.60;;;5.10;99.90;;;;;;5070949;28;20318;-80
2021/12/06 12:03:12;;;;;;;56.33;27.17;;;5.00;99.90;;;;;;5054467;28;20265;-83
2021/12/06 12:05:40;;;;;;;65.20;28.00;;;5.00;99.90;;;;;;5085080;28;20203;-80
2021/12/06 12:08:07;;;;;;;60.57;26.67;;;5.00;99.90;;;;;;5090959;28;20220;-80
2021/12/06 12:10:39;;;;;;;57.93;26.83;;;5.00;99.90;;;;;;5085430;28;20233;-83
2021/12/06 12:13:08;;;;;;;61.20;27.10;;;5.00;99.90;;;;;;5054849;28;20658;-80
2021/12/06 12:15:35;;;;;;;65.40;29.43;;;5.00;99.90;;;;;;5072232;28;20568;-79
2021/12/06 12:18:06;;;;;;;69.97;29.07;;;5.00;99.90;;;;;;5075302;28;20832;-81
2021/12/06 12:20:52;;;;;;;70.50;31.00;;;5.00;99.90;;;;;;5081176;28;20207;-79
2021/12/06 12:23:20;;;;;;;68.60;28.60;;;5.00;99.90;;;;;;5072020;28;20267;-78
2021/12/06 12:26:09;;;;;;;66.37;28.10;;;5.00;99.90;;;;;;5072806;28;20212;-82
2021/12/06 12:28:49;;;;;;;63.10;26.97;;;5.00;99.90;;;;;;5072300;28;20227;-78
2021/12/06 12:31:19;;;;;;;68.70;28.27;;;4.90;99.90;;;;;;5080801;28;20286;-80
2021/12/06 12:33:48;;;;;;;67.07;27.00;;;4.90;99.90;;;;;;5054585;28;20270;-80
2021/12/06 12:36:19;;;;;;;64.10;27.47;;;4.90;99.90;;;;;;5055580;28;20664;-81
2021/12/06 12:38:48;;;;;;;65.43;28.23;;;4.80;99.90;;;;;;5069870;28;20212;-80
2021/12/06 12:41:19;;;;;;;69.30;28.80;;;4.80;99.90;;;;;;5074533;28;20211;-81
2021/12/06 12:43:50;;;;;;;70.10;29.37;;;4.80;99.90;;;;;;5052424;28;20218;-81
2021/12/06 12:46:30;;;;;;;68.87;29.53;;;4.80;99.90;;;;;;5074128;28;20197;-80
2021/12/06 12:49:00;;;;;;;68.13;28.83;;;4.80;99.90;;;;;;5071980;28;20231;-80
2021/12/06 12:51:31;;;;;;;67.80;28.97;;;4.80;99.90;;;;;;5067896;28;20209;-79
2021/12/06 12:54:06;;;;;;;67.67;27.67;;;4.90;99.90;;;;;;5079547;28;20268;-79
2021/12/06 12:56:41;;;;;;;64.83;27.90;;;4.90;99.90;;;;;;5067648;28;20198;-81